Airfield :
LOGIN :

Register | Disclaimer

   EN    FR    IT 

 










Legend :    VFR   Marginal VFR   IFR   Intensive IFR   Very Intensive IFR
Visi :
Ceiling :
>= 8 km
>= 3000ft
5 to 8 km
1000 to 3000 ft
1500m to 5 km
500 to 1000 ft
800 to 1500m
200 to 500 ft
< 800m
< 200 ft
Symbols :   Thunderstorms  Fog  Heavy snow  Heavy precipitations  Wind > 20 kt
SIGMETs :     Misc.  Thunderstorms  Icing  Turbulence  Mountain Waves  Volcanic Ashes






- Airport Elevation : 121 ft
- IATA code : HUY


EGNJ - Humberside

CURRENT METAR :
  • 191420Z 30004KT 8000 SCT030 BKN045 17/15 Q1014

EXPIRED METARs :
  • 191350Z 30005KT 8000 -RA SCT030 BKN045 17/15 Q1014
  • 191320Z 24004KT 210V280 8000 -RA SCT030 BKN045 18/16 Q1014
  • 191250Z AUTO 24008KT 6000 RA SCT033/// BKN038/// BKN049/// 19/15 Q1014
  • 191220Z AUTO 22004KT 180V250 9999 FEW027/// SCT033/// 20/14 Q1014
  • 191150Z AUTO VRB02KT 9999 BKN028/// BKN048/// 19/15 Q1014

TAF TAF EGNJ
Valid from the 19 at 15:00 until the 20 at 00:00 UTC


191403Z 1915/1924 VRB03KT 9999 SCT030
PROB30
TEMPO 1915/1917 8000 -RA
ATIS : +44 1652 682 020



MET'MAP, your aeronautical weather chart ! - Copyright ORBIFLY December 2007 - Disclaimer

ORBIFLY MET'MAP TEAM :

Programming & Development : Alexandra Zaïnal
Concept & original design : Baudouin d'Aumeries
Assistance for programming : Marc-Olivier Méhu
Technical & hardware support : Manuel Goepfert

Contact : metmap@orbifly.com




SOURCES & CREDITS :

   NOAA